Time;durP1;ratioP1;P1;durP2;ratioP2;P2;SDS_P1;SDS_P2;PMS_P1;PMS_P2;Temp;Humidity;BMP_temperature;BMP_pressure;BME280_temperature;BME280_humidity;BME280_pressure;Samples;Min_cycle;Max_cycle;Signal;HPM_P1;HPM_P2
2022/01/20 00:01:42;;;;;;;6.85;3.85;;;5.60;99.90;;;;;;4986667;28;20295;-87
2022/01/20 00:04:26;;;;;;;5.72;3.45;;;6.10;99.90;;;;;;4985321;28;20218;-88
2022/01/20 00:20:28;;;;;;;5.40;3.47;;;6.20;99.90;;;;;;4984879;28;20189;-87
2022/01/20 00:26:26;;;;;;;7.30;4.07;;;6.20;99.90;;;;;;4945152;28;20211;-86
2022/01/20 00:28:57;;;;;;;6.65;3.13;;;6.20;99.90;;;;;;4986441;28;20252;-87
2022/01/20 00:31:38;;;;;;;5.75;3.70;;;6.10;99.90;;;;;;4991813;28;20261;-85
2022/01/20 00:34:15;;;;;;;5.70;3.60;;;6.10;99.90;;;;;;4986358;28;20235;-86
2022/01/20 00:39:30;;;;;;;5.80;3.40;;;6.20;99.90;;;;;;4987551;28;20541;-86
2022/01/20 00:41:57;;;;;;;5.15;3.03;;;6.10;99.90;;;;;;4986762;28;20253;-88
2022/01/20 00:44:25;;;;;;;5.20;3.10;;;6.00;99.90;;;;;;4987350;28;20215;-87
2022/01/20 00:46:55;;;;;;;6.20;2.97;;;6.10;99.90;;;;;;4991515;28;20221;-85
2022/01/20 00:49:22;;;;;;;5.45;3.40;;;6.00;99.90;;;;;;4998778;28;20278;-87
2022/01/20 00:51:50;;;;;;;5.72;3.25;;;5.60;99.90;;;;;;4998362;28;20223;-87
2022/01/20 00:54:17;;;;;;;5.20;2.92;;;6.10;99.90;;;;;;4992501;28;20217;-88
2022/01/20 00:56:44;;;;;;;6.28;3.55;;;6.10;99.90;;;;;;4985036;28;20282;-88
2022/01/20 00:59:11;;;;;;;6.20;2.90;;;6.20;99.90;;;;;;4982910;28;20269;-87
2022/01/20 01:01:38;;;;;;;6.10;3.17;;;6.10;99.90;;;;;;4983196;28;20792;-88
2022/01/20 01:04:06;;;;;;;5.05;2.97;;;6.10;99.90;;;;;;4985316;28;20235;-88
2022/01/20 01:06:55;;;;;;;6.55;2.80;;;5.70;99.90;;;;;;4987417;28;20242;-88
2022/01/20 01:09:23;;;;;;;5.00;2.80;;;6.10;99.90;;;;;;4983533;28;20200;-88
2022/01/20 01:11:52;;;;;;;5.18;2.83;;;6.00;99.90;;;;;;4987479;28;20302;-88
2022/01/20 01:14:21;;;;;;;4.40;2.42;;;6.00;99.90;;;;;;4985356;28;20215;-89
2022/01/20 01:22:22;;;;;;;5.20;2.65;;;5.70;99.90;;;;;;4983552;28;20303;-88
2022/01/20 01:24:53;;;;;;;4.28;2.50;;;5.90;99.90;;;;;;4988295;28;20202;-88
2022/01/20 01:27:22;;;;;;;5.35;2.42;;;5.70;99.90;;;;;;4987078;28;20250;-88
2022/01/20 01:30:08;;;;;;;5.63;2.40;;;5.80;99.90;;;;;;4982736;28;20586;-88
2022/01/20 01:32:46;;;;;;;4.95;2.67;;;5.90;99.90;;;;;;4985221;28;20229;-88
2022/01/20 01:35:13;;;;;;;4.18;2.38;;;5.90;99.90;;;;;;4984015;28;20215;-87
2022/01/20 01:40:29;;;;;;;4.50;2.50;;;6.00;99.90;;;;;;4982679;28;20241;-89
2022/01/20 01:42:56;;;;;;;4.22;2.67;;;6.00;99.90;;;;;;4983498;28;20217;-87
2022/01/20 01:45:27;;;;;;;4.75;2.60;;;5.70;99.90;;;;;;4983184;28;20298;-88
2022/01/20 01:47:55;;;;;;;4.30;2.17;;;5.90;99.90;;;;;;4983316;28;20550;-87
2022/01/20 01:50:22;;;;;;;4.57;2.55;;;5.80;99.90;;;;;;4982747;28;20206;-87
2022/01/20 01:52:50;;;;;;;4.47;2.40;;;5.80;99.90;;;;;;5008444;23;20328;-87
2022/01/20 01:55:17;;;;;;;5.22;2.40;;;5.70;99.90;;;;;;4979488;28;20226;-87
2022/01/20 01:57:46;;;;;;;4.45;2.42;;;5.80;99.90;;;;;;4988461;28;20301;-86
2022/01/20 02:00:15;;;;;;;4.45;2.00;;;5.40;99.90;;;;;;4983980;28;20200;-89
2022/01/20 02:02:43;;;;;;;5.72;2.80;;;5.80;99.90;;;;;;4986149;28;20223;-88
2022/01/20 02:05:11;;;;;;;3.85;2.35;;;5.70;99.90;;;;;;4984627;28;20245;-88
2022/01/20 02:08:10;;;;;;;4.22;2.20;;;5.60;99.90;;;;;;4982760;28;20226;-88
2022/01/20 02:18:52;;;;;;;4.43;1.83;;;5.70;99.90;;;;;;4993005;28;20198;-87
2022/01/20 02:21:20;;;;;;;4.38;2.00;;;5.40;99.90;;;;;;4983430;28;20212;-88
2022/01/20 02:23:48;;;;;;;4.40;2.20;;;5.60;99.90;;;;;;4982231;28;20594;-87
2022/01/20 02:26:15;;;;;;;4.63;2.20;;;5.70;99.90;;;;;;4986899;28;20229;-86
2022/01/20 02:28:44;;;;;;;4.55;2.20;;;5.60;99.90;;;;;;4995903;28;20321;-88
2022/01/20 02:31:11;;;;;;;3.75;2.13;;;5.40;99.90;;;;;;4982499;28;20220;-87
2022/01/20 02:33:38;;;;;;;4.47;1.83;;;5.70;99.90;;;;;;4981757;28;20254;-88
2022/01/20 02:36:10;;;;;;;4.45;2.20;;;5.50;99.90;;;;;;4981624;28;20314;-88
2022/01/20 02:38:42;;;;;;;3.88;2.03;;;5.70;99.90;;;;;;4995495;28;20199;-87
2022/01/20 02:46:41;;;;;;;5.43;2.00;;;5.20;99.90;;;;;;4983502;28;20210;-88
2022/01/20 02:49:14;;;;;;;4.18;2.15;;;5.20;99.90;;;;;;4982773;28;20649;-88
2022/01/20 02:51:48;;;;;;;3.58;1.80;;;5.60;99.90;;;;;;4981898;28;20286;-88
2022/01/20 02:54:17;;;;;;;4.55;2.47;;;5.60;99.90;;;;;;4982015;28;20213;-89
2022/01/20 02:56:44;;;;;;;4.70;1.98;;;5.20;99.90;;;;;;4982711;28;20232;-88
2022/01/20 02:59:12;;;;;;;3.22;1.60;;;5.40;99.90;;;;;;4982464;28;20205;-89
2022/01/20 03:01:39;;;;;;;4.53;2.20;;;5.70;99.90;;;;;;4982079;28;20313;-87
2022/01/20 03:04:06;;;;;;;4.40;2.03;;;5.80;99.90;;;;;;4980466;28;20207;-88
2022/01/20 03:06:33;;;;;;;3.90;1.73;;;5.90;99.90;;;;;;4981712;28;20318;-87
2022/01/20 03:09:00;;;;;;;3.58;1.80;;;5.90;99.90;;;;;;4989192;28;20245;-88
2022/01/20 03:11:29;;;;;;;4.07;1.88;;;5.80;99.90;;;;;;4996882;28;20215;-88
2022/01/20 03:13:57;;;;;;;3.58;1.50;;;5.40;99.90;;;;;;4983190;28;20214;-87
2022/01/20 03:16:24;;;;;;;3.17;1.30;;;5.90;99.90;;;;;;4981628;28;20314;-88
2022/01/20 03:18:51;;;;;;;4.60;1.40;;;6.00;99.90;;;;;;4981769;28;20273;-87
2022/01/20 03:21:18;;;;;;;3.95;1.58;;;6.00;99.90;;;;;;4982510;28;20576;-88
2022/01/20 03:23:45;;;;;;;3.05;1.38;;;6.00;99.90;;;;;;4984908;28;20234;-87
2022/01/20 03:26:12;;;;;;;3.40;1.73;;;6.00;99.90;;;;;;4984821;28;20215;-88
2022/01/20 03:28:40;;;;;;;3.20;1.23;;;5.60;99.90;;;;;;4984442;28;20239;-87
2022/01/20 03:31:07;;;;;;;2.72;1.20;;;6.00;99.90;;;;;;4982687;28;20281;-87
2022/01/20 03:33:34;;;;;;;3.10;1.27;;;5.80;99.90;;;;;;4981696;28;20207;-87
2022/01/20 03:36:02;;;;;;;3.63;1.55;;;6.10;99.90;;;;;;4989345;28;20266;-86
2022/01/20 03:38:28;;;;;;;3.50;1.55;;;6.10;99.90;;;;;;4991575;28;20297;-87
2022/01/20 03:40:56;;;;;;;3.42;1.30;;;5.50;99.90;;;;;;4995847;28;20214;-85
2022/01/20 03:43:23;;;;;;;4.38;1.70;;;5.50;99.90;;;;;;4996783;28;20287;-88
2022/01/20 03:45:55;;;;;;;3.00;1.50;;;5.90;99.90;;;;;;4991490;28;20274;-85
2022/01/20 03:48:24;;;;;;;3.38;1.70;;;5.60;99.90;;;;;;4992595;28;20215;-87
2022/01/20 03:51:00;;;;;;;3.47;1.75;;;5.90;99.90;;;;;;4987314;28;20217;-87
2022/01/20 03:53:27;;;;;;;3.25;1.55;;;5.50;99.90;;;;;;4987413;28;20249;-87
2022/01/20 03:55:56;;;;;;;3.38;1.30;;;5.50;99.90;;;;;;4998434;28;20307;-87
2022/01/20 03:58:24;;;;;;;4.63;1.90;;;6.20;99.90;;;;;;4980656;28;20294;-86
2022/01/20 04:00:53;;;;;;;4.22;1.80;;;5.90;99.90;;;;;;4980275;28;20736;-87
2022/01/20 04:03:20;;;;;;;3.28;1.50;;;6.10;99.90;;;;;;4980745;28;20281;-86
2022/01/20 04:05:56;;;;;;;4.03;1.90;;;5.50;99.90;;;;;;4982606;28;20206;-85
2022/01/20 04:08:25;;;;;;;3.30;1.75;;;5.60;99.90;;;;;;4996257;28;20195;-86
2022/01/20 04:10:52;;;;;;;4.47;1.65;;;6.20;99.90;;;;;;4987627;28;20241;-87
2022/01/20 04:13:19;;;;;;;3.63;1.80;;;6.00;99.90;;;;;;4982824;28;20234;-86
2022/01/20 04:15:48;;;;;;;3.53;1.70;;;6.00;99.90;;;;;;4987151;28;20234;-86
2022/01/20 04:18:24;;;;;;;4.10;1.77;;;6.20;99.90;;;;;;4982826;28;20598;-86
2022/01/20 04:20:51;;;;;;;3.80;2.15;;;5.70;99.90;;;;;;4981066;28;20207;-88
2022/01/20 04:23:17;;;;;;;4.78;2.10;;;5.80;99.90;;;;;;4982236;28;20230;-88
2022/01/20 04:25:45;;;;;;;4.72;2.25;;;6.00;99.90;;;;;;4983013;28;20301;-88
2022/01/20 04:28:12;;;;;;;4.10;2.22;;;5.90;99.90;;;;;;4982963;28;20235;-88
2022/01/20 04:30:39;;;;;;;4.15;2.47;;;5.70;99.90;;;;;;4982323;28;20626;-86
2022/01/20 04:33:06;;;;;;;4.97;2.22;;;6.20;99.90;;;;;;4982725;28;20289;-87
2022/01/20 04:35:34;;;;;;;3.92;1.92;;;6.00;99.90;;;;;;4987875;28;20207;-87
2022/01/20 04:38:01;;;;;;;3.60;1.83;;;5.80;99.90;;;;;;4997421;28;20289;-87
2022/01/20 04:40:35;;;;;;;5.70;2.10;;;6.30;99.90;;;;;;4993285;28;20204;-88
2022/01/20 04:43:01;;;;;;;3.83;2.05;;;6.20;99.90;;;;;;4994775;28;20286;-88
2022/01/20 04:45:33;;;;;;;3.60;2.20;;;6.20;99.90;;;;;;4992840;28;20218;-86
2022/01/20 04:48:14;;;;;;;4.50;2.33;;;6.20;99.90;;;;;;4985363;28;20196;-87
2022/01/20 04:58:56;;;;;;;4.82;1.85;;;6.20;99.90;;;;;;4983276;28;20721;-87
2022/01/20 05:01:23;;;;;;;4.00;2.42;;;5.80;99.90;;;;;;4982710;28;20690;-88
2022/01/20 05:03:50;;;;;;;4.45;2.13;;;6.10;99.90;;;;;;4982324;28;20644;-87
2022/01/20 05:06:18;;;;;;;5.97;2.20;;;5.60;99.90;;;;;;4983972;28;20241;-88
2022/01/20 05:08:45;;;;;;;4.65;2.00;;;5.90;99.90;;;;;;4984613;28;20211;-87
2022/01/20 05:11:13;;;;;;;4.00;2.30;;;5.70;99.90;;;;;;4983738;28;20283;-88
2022/01/20 05:13:40;;;;;;;4.15;2.42;;;5.90;99.90;;;;;;4982884;28;20223;-89
2022/01/20 05:16:08;;;;;;;4.47;2.53;;;6.20;99.90;;;;;;4981495;28;20223;-87
2022/01/20 05:18:38;;;;;;;3.58;1.90;;;6.00;99.90;;;;;;4982438;28;20206;-88
2022/01/20 05:21:05;;;;;;;4.20;2.22;;;5.70;99.90;;;;;;4983749;28;20221;-88
2022/01/20 05:23:34;;;;;;;5.28;2.25;;;5.40;99.90;;;;;;4981055;28;20285;-87
2022/01/20 05:26:00;;;;;;;5.13;2.63;;;5.80;99.90;;;;;;4980938;28;20274;-89
2022/01/20 05:28:27;;;;;;;5.30;2.65;;;5.70;99.90;;;;;;4981196;28;20215;-88
2022/01/20 05:30:54;;;;;;;4.85;2.30;;;5.50;99.90;;;;;;4988147;28;20225;-88
2022/01/20 05:33:21;;;;;;;4.43;2.50;;;5.60;99.90;;;;;;4990529;28;20773;-87
2022/01/20 05:35:48;;;;;;;5.78;2.42;;;5.50;99.90;;;;;;4986268;28;20215;-87
2022/01/20 05:38:15;;;;;;;5.18;2.58;;;5.90;99.90;;;;;;4980553;28;20210;-87
2022/01/20 05:40:43;;;;;;;6.07;2.53;;;6.00;99.90;;;;;;4980947;28;20211;-88
2022/01/20 05:43:10;;;;;;;5.40;2.67;;;6.00;99.90;;;;;;4991628;28;20261;-88
2022/01/20 05:45:37;;;;;;;3.97;2.38;;;5.50;99.90;;;;;;4994003;28;20248;-89
2022/01/20 05:48:12;;;;;;;5.70;2.53;;;5.70;99.90;;;;;;4996986;28;20242;-87
2022/01/20 05:50:39;;;;;;;6.47;3.00;;;5.80;99.90;;;;;;4996200;28;20219;-88
2022/01/20 05:53:07;;;;;;;4.63;2.78;;;5.50;99.90;;;;;;4990468;28;20274;-89
2022/01/20 05:55:37;;;;;;;5.28;2.72;;;5.70;99.90;;;;;;4988950;28;20215;-86
2022/01/20 05:58:08;;;;;;;7.07;3.00;;;5.50;99.90;;;;;;4983957;28;20225;-87
2022/01/20 06:00:37;;;;;;;5.65;2.65;;;5.90;99.90;;;;;;4983166;28;20213;-87
2022/01/20 06:05:50;;;;;;;5.05;2.55;;;5.80;99.90;;;;;;4987421;28;20580;-87
2022/01/20 06:08:17;;;;;;;5.13;2.55;;;5.50;99.90;;;;;;4980370;28;20216;-89
2022/01/20 06:10:44;;;;;;;8.13;2.90;;;5.80;99.90;;;;;;4978596;28;20210;-88
2022/01/20 06:13:13;;;;;;;6.18;3.50;;;5.50;99.90;;;;;;4980340;28;20226;-88
2022/01/20 06:15:40;;;;;;;5.80;2.97;;;5.70;99.90;;;;;;4980181;28;20210;-87
2022/01/20 06:18:07;;;;;;;5.18;3.28;;;5.70;99.90;;;;;;4978412;28;20315;-87
2022/01/20 06:20:35;;;;;;;4.68;2.83;;;5.30;99.90;;;;;;4980430;28;20215;-88
2022/01/20 06:23:02;;;;;;;5.28;2.72;;;5.70;99.90;;;;;;4980221;28;20297;-87
2022/01/20 06:25:29;;;;;;;4.90;2.53;;;5.30;99.90;;;;;;4981287;28;20215;-86
2022/01/20 06:27:56;;;;;;;5.90;3.10;;;5.20;99.90;;;;;;4979930;28;20299;-87
2022/01/20 06:30:25;;;;;;;4.57;2.25;;;5.30;99.90;;;;;;4981804;28;20216;-87
2022/01/20 06:32:53;;;;;;;4.90;2.50;;;5.30;99.90;;;;;;4984161;28;20787;-87
2022/01/20 06:35:20;;;;;;;5.70;2.78;;;5.70;99.90;;;;;;4985292;28;20643;-88
2022/01/20 06:37:47;;;;;;;5.55;2.70;;;5.80;99.90;;;;;;4985649;28;20282;-87
2022/01/20 06:40:15;;;;;;;6.20;2.60;;;5.80;99.90;;;;;;4982967;28;20242;-86
2022/01/20 06:42:42;;;;;;;6.60;3.15;;;5.80;99.90;;;;;;4981550;28;20227;-87
2022/01/20 06:45:13;;;;;;;5.85;3.00;;;5.40;99.90;;;;;;4981365;28;20752;-87
2022/01/20 06:47:41;;;;;;;5.07;2.60;;;5.80;99.90;;;;;;4990524;28;20211;-87
2022/01/20 06:50:10;;;;;;;4.90;2.65;;;5.60;99.90;;;;;;4980661;28;20212;-87
2022/01/20 06:52:38;;;;;;;4.65;2.05;;;5.50;99.90;;;;;;4981402;28;20333;-87
2022/01/20 06:55:07;;;;;;;7.82;2.50;;;5.60;99.90;;;;;;4983059;28;20215;-88
2022/01/20 06:57:35;;;;;;;7.40;3.45;;;5.80;99.90;;;;;;4982612;28;20222;-88
2022/01/20 07:00:02;;;;;;;4.35;2.10;;;5.40;99.90;;;;;;4982310;28;20252;-89
2022/01/20 07:02:29;;;;;;;4.75;2.67;;;5.90;99.90;;;;;;4982257;28;20248;-88
2022/01/20 07:04:58;;;;;;;7.28;2.58;;;5.80;99.90;;;;;;4986658;28;20241;-87
2022/01/20 07:07:25;;;;;;;6.47;2.45;;;5.80;99.90;;;;;;4997717;28;20223;-89
2022/01/20 07:09:54;;;;;;;5.70;2.30;;;5.60;99.90;;;;;;4987060;28;20319;-88
2022/01/20 07:12:21;;;;;;;11.43;2.30;;;5.50;99.90;;;;;;4984636;28;20249;-88
2022/01/20 07:14:48;;;;;;;7.22;2.70;;;5.80;99.90;;;;;;4985448;28;20357;-87
2022/01/20 07:17:15;;;;;;;6.55;2.40;;;5.70;99.90;;;;;;4984386;28;20227;-87
2022/01/20 07:19:42;;;;;;;4.65;2.72;;;5.70;99.90;;;;;;4993652;28;20231;-87
2022/01/20 07:22:10;;;;;;;5.10;2.30;;;5.40;99.90;;;;;;4996702;28;20222;-88
2022/01/20 07:24:47;;;;;;;4.80;2.40;;;5.70;99.90;;;;;;4986483;28;20220;-88
2022/01/20 07:27:17;;;;;;;5.78;2.47;;;5.70;99.90;;;;;;4983129;28;20214;-88
2022/01/20 07:29:45;;;;;;;5.28;2.75;;;5.60;99.90;;;;;;4989566;28;20204;-88
2022/01/20 07:32:12;;;;;;;5.95;2.45;;;5.50;99.90;;;;;;4997174;28;20344;-88
2022/01/20 07:34:39;;;;;;;5.82;3.00;;;5.20;99.90;;;;;;4988321;28;20589;-88
2022/01/20 07:37:10;;;;;;;7.38;2.85;;;5.50;99.90;;;;;;4986598;28;20351;-88
2022/01/20 07:39:41;;;;;;;13.25;2.63;;;5.10;99.90;;;;;;4986481;28;20195;-87
2022/01/20 07:42:09;;;;;;;5.45;2.65;;;5.40;99.90;;;;;;4986673;28;20254;-87
2022/01/20 07:44:36;;;;;;;8.45;2.90;;;5.30;99.90;;;;;;4981348;28;20206;-87
2022/01/20 07:47:03;;;;;;;5.82;2.70;;;5.40;99.90;;;;;;4981626;28;20269;-88
2022/01/20 07:49:30;;;;;;;8.73;2.50;;;5.50;99.90;;;;;;4997677;28;20661;-88
2022/01/20 10:44:14;;;;;;;7.68;2.90;;;7.20;99.90;;;;;;4942179;29;20230;-84
2022/01/20 10:50:43;;;;;;;7.82;3.10;;;7.20;99.90;;;;;;4912762;29;20628;-84
2022/01/20 10:53:47;;;;;;;;;;;;;;;;;;;;;
2022/01/20 10:56:53;;;;;;;;;;;;;;;;;;;;;
2022/01/20 11:06:11;;;;;;;6.82;3.40;;;7.30;99.90;;;;;;4954409;29;20248;-85
2022/01/20 11:13:00;;;;;;;12.23;3.90;;;7.20;99.90;;;;;;4921853;29;20228;-84
2022/01/20 11:19:41;;;;;;;8.02;3.33;;;7.20;99.90;;;;;;4927031;29;20240;-86
2022/01/20 11:22:47;;;;;;;4.40;2.00;;;7.00;99.90;;;;;;4884732;29;20281;-85
2022/01/20 12:59:00;;;;;;;6.72;2.42;;;3.90;99.90;;;;;;4959412;29;20225;-86
2022/01/20 13:05:01;;;;;;;6.57;2.28;;;4.60;99.90;;;;;;4812260;29;20249;-84
2022/01/20 13:08:20;;;;;;;7.72;2.58;;;4.70;99.90;;;;;;4866319;29;20278;-84
2022/01/20 13:11:12;;;;;;;9.48;2.55;;;4.50;99.90;;;;;;4864570;29;20203;-85
2022/01/20 13:14:29;;;;;;;;;;;;;;;;;;;;;
2022/01/20 13:17:22;;;;;;;9.60;3.10;;;4.80;99.90;;;;;;4934758;29;20219;-84
2022/01/20 13:20:41;;;;;;;5.78;2.70;;;4.70;99.90;;;;;;4945522;29;20216;-86
2022/01/20 13:27:07;;;;;;;7.30;2.35;;;4.70;99.90;;;;;;4952562;29;20651;-87
2022/01/20 13:30:06;;;;;;;7.90;2.42;;;4.70;99.90;;;;;;4943486;29;20625;-85
2022/01/20 13:56:59;;;;;;;5.43;2.30;;;5.20;99.90;;;;;;4950204;23;20247;-88
2022/01/20 13:59:32;;;;;;;8.10;2.45;;;5.30;99.90;;;;;;4990413;28;20226;-90
2022/01/20 14:01:59;;;;;;;6.68;2.45;;;5.50;99.90;;;;;;4985461;28;20211;-89
2022/01/20 14:04:33;;;;;;;7.38;2.30;;;5.20;99.90;;;;;;4985970;28;20250;-88
2022/01/20 14:07:09;;;;;;;12.73;2.65;;;5.20;99.90;;;;;;4985198;28;20261;-89
2022/01/20 14:09:39;;;;;;;8.68;2.50;;;5.40;99.90;;;;;;4983798;28;20217;-88
2022/01/20 14:12:07;;;;;;;6.72;2.35;;;5.60;99.90;;;;;;4983394;28;20289;-88
2022/01/20 14:14:34;;;;;;;6.35;2.55;;;5.60;99.90;;;;;;4984252;28;20238;-90
2022/01/20 14:17:15;;;;;;;6.00;2.20;;;5.40;99.90;;;;;;4985132;28;20224;-88
2022/01/20 14:19:45;;;;;;;6.07;2.25;;;5.10;99.90;;;;;;4986531;28;20198;-87
2022/01/20 14:22:15;;;;;;;11.27;2.80;;;5.40;99.90;;;;;;4985103;28;20216;-88
2022/01/20 14:24:42;;;;;;;7.75;2.42;;;5.50;99.90;;;;;;4986397;28;20189;-88
2022/01/20 14:27:14;;;;;;;7.18;2.50;;;5.50;99.90;;;;;;4987544;28;20317;-88
2022/01/20 14:29:48;;;;;;;7.00;2.50;;;5.10;99.90;;;;;;4996435;28;20210;-88
2022/01/20 14:32:15;;;;;;;6.68;2.88;;;5.20;99.90;;;;;;4987502;28;20215;-89
2022/01/20 14:34:43;;;;;;;5.20;2.47;;;4.80;99.90;;;;;;4984279;28;20212;-86
2022/01/20 14:37:12;;;;;;;7.93;2.78;;;5.10;99.90;;;;;;4984034;28;20225;-87
2022/01/20 14:39:41;;;;;;;6.25;2.30;;;5.10;99.90;;;;;;4982618;28;20672;-88
2022/01/20 14:42:10;;;;;;;7.75;2.45;;;5.20;99.90;;;;;;4984298;28;20210;-89
2022/01/20 14:44:38;;;;;;;8.18;2.70;;;5.20;99.90;;;;;;4984762;28;20259;-88
2022/01/20 14:47:06;;;;;;;7.80;3.20;;;5.00;99.90;;;;;;4986620;28;20262;-87
2022/01/20 14:49:33;;;;;;;7.60;2.90;;;5.10;99.90;;;;;;4995828;28;20194;-88
2022/01/20 14:52:01;;;;;;;9.93;2.60;;;5.00;99.90;;;;;;4993831;28;20242;-88
2022/01/20 14:54:28;;;;;;;6.82;2.50;;;5.00;99.90;;;;;;4983349;28;20303;-89
2022/01/20 14:56:56;;;;;;;9.68;3.17;;;5.10;99.90;;;;;;4984034;28;20253;-89
2022/01/20 14:59:23;;;;;;;9.30;2.75;;;5.20;99.90;;;;;;4988205;28;20247;-89
2022/01/20 15:01:51;;;;;;;5.20;2.80;;;5.30;99.90;;;;;;4987993;28;20299;-88
2022/01/20 15:04:18;;;;;;;8.63;2.88;;;5.60;99.90;;;;;;4987632;28;20215;-89
2022/01/20 15:06:45;;;;;;;9.73;2.80;;;5.60;99.90;;;;;;4987129;28;20229;-89
2022/01/20 15:09:12;;;;;;;6.15;2.45;;;5.50;99.90;;;;;;4988131;28;20255;-89
2022/01/20 15:11:39;;;;;;;8.82;2.72;;;4.90;99.90;;;;;;4987008;28;20227;-89
2022/01/20 15:14:08;;;;;;;12.40;3.22;;;5.40;99.90;;;;;;4985805;28;20221;-89
2022/01/20 15:16:34;;;;;;;6.07;2.90;;;5.50;99.90;;;;;;4987977;28;20238;-89
2022/01/20 15:19:04;;;;;;;9.68;3.55;;;5.20;99.90;;;;;;4990873;28;20251;-89
2022/01/20 15:21:32;;;;;;;8.88;2.67;;;5.50;99.90;;;;;;4988516;28;20274;-88
2022/01/20 15:24:02;;;;;;;7.03;3.15;;;5.40;99.90;;;;;;4995148;28;20186;-88
2022/01/20 15:26:29;;;;;;;10.15;3.13;;;5.30;99.90;;;;;;5000064;28;20203;-89
2022/01/20 15:28:58;;;;;;;7.72;2.53;;;4.90;99.90;;;;;;4996850;28;20297;-88
2022/01/20 15:31:29;;;;;;;5.53;3.00;;;5.00;99.90;;;;;;4991159;28;20213;-89
2022/01/20 15:33:57;;;;;;;10.27;3.20;;;5.10;99.90;;;;;;5000154;28;20259;-89
2022/01/20 15:36:24;;;;;;;7.97;3.53;;;4.80;99.90;;;;;;4991664;28;20293;-89
2022/01/20 15:38:51;;;;;;;6.07;2.45;;;4.80;99.90;;;;;;4985269;28;20221;-87
2022/01/20 15:41:18;;;;;;;9.52;3.65;;;5.00;99.90;;;;;;4991291;28;20225;-89
2022/01/20 15:43:45;;;;;;;13.73;4.05;;;4.90;99.90;;;;;;4986009;28;20210;-89
2022/01/20 15:46:12;;;;;;;8.20;3.05;;;4.90;99.90;;;;;;4985308;28;20225;-88
2022/01/20 15:48:41;;;;;;;9.90;2.72;;;4.90;99.90;;;;;;4988042;28;20205;-89
2022/01/20 15:51:08;;;;;;;13.10;3.08;;;5.00;99.90;;;;;;4985616;28;20210;-89
2022/01/20 15:53:34;;;;;;;9.68;3.03;;;5.00;99.90;;;;;;4987074;28;20297;-89
2022/01/20 15:56:02;;;;;;;8.50;2.65;;;4.70;99.90;;;;;;4988120;28;20219;-90
2022/01/20 15:58:29;;;;;;;6.03;2.72;;;5.00;99.90;;;;;;4986652;28;20258;-89
2022/01/20 16:00:56;;;;;;;11.20;4.40;;;4.80;99.90;;;;;;4986790;28;20590;-89
2022/01/20 16:03:23;;;;;;;10.90;2.80;;;4.60;99.90;;;;;;4986082;28;20221;-90
2022/01/20 16:05:52;;;;;;;5.45;2.20;;;4.40;99.90;;;;;;4987513;28;20208;-89
2022/01/20 16:08:19;;;;;;;7.28;2.25;;;4.50;99.90;;;;;;4990953;28;20251;-88
2022/01/20 16:10:46;;;;;;;7.25;3.03;;;5.00;99.90;;;;;;4996048;28;20223;-88
2022/01/20 16:13:13;;;;;;;6.78;2.50;;;4.50;99.90;;;;;;4997377;28;20208;-89
2022/01/20 16:15:41;;;;;;;8.10;2.15;;;4.60;99.90;;;;;;4990501;28;20261;-89
2022/01/20 16:18:12;;;;;;;8.23;3.00;;;4.80;99.90;;;;;;4987636;28;20258;-89
2022/01/20 16:20:39;;;;;;;7.80;3.15;;;4.40;99.90;;;;;;4989489;28;20238;-88
2022/01/20 16:23:08;;;;;;;7.38;2.35;;;4.80;99.90;;;;;;4996834;28;20252;-89
2022/01/20 16:25:35;;;;;;;8.35;2.90;;;4.80;99.90;;;;;;4996917;28;20195;-88
2022/01/20 16:28:02;;;;;;;6.60;2.17;;;4.80;99.90;;;;;;4995555;28;20654;-88
2022/01/20 16:30:30;;;;;;;7.28;2.78;;;4.70;99.90;;;;;;4987170;28;20214;-90
2022/01/20 16:32:57;;;;;;;4.25;2.00;;;4.60;99.90;;;;;;4987195;28;20222;-88
2022/01/20 16:35:25;;;;;;;7.75;3.17;;;4.00;99.90;;;;;;4987714;28;20569;-89
2022/01/20 16:37:52;;;;;;;5.82;2.65;;;4.70;99.90;;;;;;4986306;28;20233;-89
2022/01/20 16:40:21;;;;;;;7.57;1.90;;;4.50;99.90;;;;;;4989035;28;20218;-89
2022/01/20 16:42:49;;;;;;;5.95;2.40;;;4.40;99.90;;;;;;4987740;28;20218;-90
2022/01/20 16:45:17;;;;;;;6.40;2.50;;;4.50;99.90;;;;;;4987975;28;20236;-89
2022/01/20 16:47:45;;;;;;;5.82;1.92;;;4.20;99.90;;;;;;4988609;28;20263;-87
2022/01/20 16:50:15;;;;;;;7.38;2.90;;;4.20;99.90;;;;;;4987270;28;20210;-90
2022/01/20 16:52:42;;;;;;;6.13;2.10;;;4.50;99.90;;;;;;4988083;28;20237;-90
2022/01/20 16:55:10;;;;;;;4.45;2.15;;;4.50;99.90;;;;;;4992050;28;20272;-89
2022/01/20 16:57:39;;;;;;;6.32;2.88;;;4.50;99.90;;;;;;4984936;28;20241;-87
2022/01/20 17:00:09;;;;;;;7.00;2.53;;;4.40;99.90;;;;;;4984704;28;20228;-89
2022/01/20 17:02:39;;;;;;;6.32;1.85;;;4.60;99.90;;;;;;4984867;28;20212;-86
2022/01/20 17:05:08;;;;;;;8.32;2.33;;;4.60;99.90;;;;;;4984697;28;20198;-89
2022/01/20 17:07:35;;;;;;;10.15;2.72;;;4.40;99.90;;;;;;4985480;28;20273;-87
2022/01/20 17:10:02;;;;;;;6.05;2.58;;;4.40;99.90;;;;;;4983990;28;20285;-89
2022/01/20 17:12:29;;;;;;;9.50;2.35;;;4.00;99.90;;;;;;4984850;28;20215;-88
2022/01/20 17:14:57;;;;;;;9.00;3.00;;;4.40;99.90;;;;;;4985865;28;20274;-89
2022/01/20 17:17:28;;;;;;;7.65;3.08;;;4.60;99.90;;;;;;4989526;28;20264;-87
2022/01/20 17:19:55;;;;;;;7.78;2.08;;;4.50;99.90;;;;;;4995863;28;20232;-88
2022/01/20 17:22:22;;;;;;;6.47;2.85;;;4.60;99.90;;;;;;4982518;28;20297;-88
2022/01/20 17:24:49;;;;;;;6.47;2.42;;;4.60;99.90;;;;;;4982423;28;20297;-89
2022/01/20 17:27:17;;;;;;;6.97;2.50;;;4.50;99.90;;;;;;4981983;28;20247;-88
2022/01/20 17:29:43;;;;;;;8.80;3.10;;;4.20;99.90;;;;;;4981355;28;20591;-88
2022/01/20 17:32:12;;;;;;;8.25;2.60;;;4.40;99.90;;;;;;4982830;28;20535;-88
2022/01/20 17:34:39;;;;;;;10.70;3.22;;;4.40;99.90;;;;;;4982053;28;20274;-87
2022/01/20 17:37:06;;;;;;;6.95;2.50;;;4.90;99.90;;;;;;4986338;28;20232;-88
2022/01/20 17:39:33;;;;;;;6.32;2.47;;;4.80;99.90;;;;;;4985279;28;20306;-88
2022/01/20 17:42:00;;;;;;;4.53;1.55;;;4.70;99.90;;;;;;4991109;28;20208;-88
2022/01/20 17:44:29;;;;;;;5.15;1.33;;;4.80;99.90;;;;;;4991364;28;20228;-90
2022/01/20 17:46:58;;;;;;;7.85;2.67;;;4.90;99.90;;;;;;4988563;28;20746;-88
2022/01/20 17:49:27;;;;;;;7.03;3.47;;;4.80;99.90;;;;;;4985422;28;20231;-89
2022/01/20 17:51:54;;;;;;;6.47;2.35;;;4.80;99.90;;;;;;4984639;28;20201;-89
2022/01/20 17:54:21;;;;;;;7.93;2.67;;;4.80;99.90;;;;;;4984197;28;20217;-88
2022/01/20 17:56:49;;;;;;;4.63;2.65;;;4.90;99.90;;;;;;4984361;28;20301;-88
2022/01/20 17:59:16;;;;;;;6.03;2.92;;;5.10;99.90;;;;;;4984971;28;20328;-88
2022/01/20 18:01:50;;;;;;;5.65;2.13;;;4.90;99.90;;;;;;4985108;28;20237;-89
2022/01/20 18:04:18;;;;;;;5.45;2.53;;;4.70;99.90;;;;;;4984053;28;20199;-88
2022/01/20 18:06:50;;;;;;;7.63;2.55;;;5.00;99.90;;;;;;4984023;28;20264;-89
2022/01/20 18:09:18;;;;;;;11.10;3.22;;;4.60;99.90;;;;;;4983317;28;20248;-89
2022/01/20 18:11:45;;;;;;;6.45;2.63;;;4.40;99.90;;;;;;4985992;28;20217;-89
2022/01/20 18:14:12;;;;;;;8.55;3.55;;;4.80;99.90;;;;;;4984235;28;20699;-89
2022/01/20 18:16:39;;;;;;;7.13;2.72;;;4.20;99.90;;;;;;4983460;28;20715;-87
2022/01/20 18:19:07;;;;;;;10.43;3.05;;;4.30;99.90;;;;;;4982980;28;20639;-88
2022/01/20 18:21:34;;;;;;;12.80;3.40;;;4.80;99.90;;;;;;4983930;28;20302;-88
2022/01/20 18:24:03;;;;;;;13.38;2.90;;;4.10;99.90;;;;;;4997550;28;20209;-89
2022/01/20 18:26:37;;;;;;;5.38;2.50;;;4.60;99.90;;;;;;4998106;28;20194;-89
2022/01/20 18:29:05;;;;;;;6.57;3.00;;;4.60;99.90;;;;;;4997900;28;20189;-88
2022/01/20 18:31:31;;;;;;;7.30;3.67;;;4.10;99.90;;;;;;4996561;28;20245;-90
2022/01/20 18:33:58;;;;;;;6.15;2.67;;;4.30;99.90;;;;;;4996870;28;20200;-87
2022/01/20 18:36:25;;;;;;;9.10;2.65;;;4.60;99.90;;;;;;4997288;28;20206;-87
2022/01/20 18:38:52;;;;;;;7.78;2.85;;;4.70;99.90;;;;;;4993957;28;20215;-89
2022/01/20 18:41:21;;;;;;;7.82;2.47;;;4.60;99.90;;;;;;4998206;28;20239;-89
2022/01/20 18:43:51;;;;;;;5.75;2.53;;;4.80;99.90;;;;;;5001314;28;20197;-88
2022/01/20 18:46:18;;;;;;;5.88;2.08;;;4.70;99.90;;;;;;4994259;28;20239;-89
2022/01/20 18:48:45;;;;;;;7.28;1.40;;;4.70;99.90;;;;;;4991556;28;20210;-91
2022/01/20 18:51:13;;;;;;;5.05;2.35;;;4.60;99.90;;;;;;4990975;28;20203;-90
2022/01/20 18:53:40;;;;;;;9.23;2.20;;;4.80;99.90;;;;;;4991306;28;20210;-88
2022/01/20 18:56:13;;;;;;;5.75;2.17;;;4.50;99.90;;;;;;4990115;28;20226;-88
2022/01/20 18:58:44;;;;;;;7.70;2.42;;;4.40;99.90;;;;;;4988964;28;20227;-89
2022/01/20 19:01:12;;;;;;;8.73;2.72;;;4.90;99.90;;;;;;4988358;28;20267;-90
2022/01/20 19:03:39;;;;;;;10.48;3.05;;;4.80;99.90;;;;;;4987298;28;20227;-89
2022/01/20 19:06:07;;;;;;;5.78;2.28;;;4.70;99.90;;;;;;4988469;28;20214;-90
2022/01/20 19:08:34;;;;;;;5.57;1.95;;;4.70;99.90;;;;;;4988255;28;20256;-89
2022/01/20 19:11:01;;;;;;;7.95;2.63;;;4.50;99.90;;;;;;4987659;28;20289;-90
2022/01/20 19:13:30;;;;;;;5.25;2.35;;;4.80;99.90;;;;;;4986089;28;20246;-89
2022/01/20 19:15:59;;;;;;;8.52;2.22;;;4.70;99.90;;;;;;4987634;28;20220;-89
2022/01/20 19:18:26;;;;;;;5.28;2.55;;;4.70;99.90;;;;;;4988227;28;20608;-89
2022/01/20 19:20:53;;;;;;;8.15;2.53;;;4.50;99.90;;;;;;4988993;28;20226;-88
2022/01/20 19:23:21;;;;;;;6.43;2.45;;;4.70;99.90;;;;;;4997354;28;20226;-88